Time;durP1;ratioP1;P1;durP2;ratioP2;P2;SDS_P1;SDS_P2;PMS_P1;PMS_P2;Temp;Humidity;BMP_temperature;BMP_pressure;BME280_temperature;BME280_humidity;BME280_pressure;Samples;Min_cycle;Max_cycle;Signal;HPM_P1;HPM_P2
2022/01/28 00:01:34;;;;;;;1999.90;999.90;;;;;;;2.22;100.00;162988.88;5023357;28;20061;-67
2022/01/28 00:04:11;;;;;;;1999.90;999.90;;;;;;;1.89;100.00;162902.66;5017906;28;20057;-67
2022/01/28 00:06:38;;;;;;;1999.90;999.90;;;;;;;2.00;100.00;162931.41;5020572;28;20130;-67
2022/01/28 00:09:05;;;;;;;1999.90;999.90;;;;;;;1.87;100.00;162895.81;5014225;28;20056;-68
2022/01/28 00:11:31;;;;;;;1999.90;999.90;;;;;;;2.12;100.00;162962.91;5023592;28;20049;-68
2022/01/28 00:38:35;;;;;;;1999.90;999.90;;;;;;;1.99;100.00;162927.28;5021811;28;20423;-68
2022/01/28 00:41:02;;;;;;;1999.90;999.90;;;;;;;2.19;100.00;162980.66;5027594;28;20426;-67
2022/01/28 00:43:29;;;;;;;1999.90;999.90;;;;;;;1.93;100.00;162912.22;5022537;28;20484;-67
2022/01/28 00:45:56;;;;;;;1999.90;999.90;;;;;;;1.85;100.00;162891.69;5016997;28;20085;-68
2022/01/28 00:48:22;;;;;;;1999.90;999.90;;;;;;;1.97;100.00;162923.19;5015701;28;20104;-68
2022/01/28 00:50:49;;;;;;;1999.90;999.90;;;;;;;1.89;100.00;162902.66;5021421;28;20366;-68
2022/01/28 00:53:15;;;;;;;1999.90;999.90;;;;;;;1.86;100.00;162893.06;5026574;28;20053;-68
2022/01/28 00:55:42;;;;;;;1999.90;999.90;;;;;;;1.72;100.00;162856.09;5016903;28;20068;-68
2022/01/28 00:58:08;;;;;;;1999.90;999.90;;;;;;;1.84;100.00;162888.94;5023272;28;20049;-68
2022/01/28 01:00:35;;;;;;;1999.90;999.90;;;;;;;1.81;100.00;162880.72;5022673;28;20320;-67
2022/01/28 01:03:02;;;;;;;1999.90;999.90;;;;;;;1.60;100.00;162824.63;5019680;28;20121;-68
2022/01/28 01:05:32;;;;;;;1999.90;999.90;;;;;;;1.74;100.00;162862.97;5022247;28;20049;-68
2022/01/28 01:08:00;;;;;;;1999.90;999.90;;;;;;;1.90;100.00;162904.00;5022006;28;20068;-67
2022/01/28 01:10:28;;;;;;;1999.90;999.90;;;;;;;1.87;100.00;162895.81;5024067;28;20100;-68
2022/01/28 01:12:55;;;;;;;1999.90;999.90;;;;;;;1.90;100.00;162904.00;5021725;28;20107;-68
2022/01/28 01:15:25;;;;;;;1999.90;999.90;;;;;;;1.73;100.00;162860.22;5017434;28;20049;-68
2022/01/28 01:23:09;;;;;;;1999.90;999.90;;;;;;;1.81;100.00;162880.72;5016906;28;20381;-68
2022/01/28 01:28:37;;;;;;;1999.90;999.90;;;;;;;1.56;100.00;162813.66;5017826;28;20320;-67
2022/01/28 01:31:06;;;;;;;1999.90;999.90;;;;;;;1.58;100.00;162819.16;5019720;28;20111;-67
2022/01/28 01:34:01;;;;;;;1999.90;999.90;;;;;;;1.79;100.00;162873.88;5020647;28;20084;-67
2022/01/28 01:36:21;;;;;;;1999.90;999.90;;;;;;;1.75;100.00;162865.66;5024728;28;20046;-67
2022/01/28 01:38:48;;;;;;;1999.90;999.90;;;;;;;1.63;100.00;162832.81;5022376;28;20435;-68
2022/01/28 01:41:24;;;;;;;1999.90;999.90;;;;;;;1.71;100.00;162854.75;5024934;28;20041;-67
2022/01/28 01:54:26;;;;;;;1999.90;999.90;;;;;;;1.73;100.00;162860.22;5026793;28;20438;-67
2022/01/28 01:56:55;;;;;;;1999.90;999.90;;;;;;;1.79;100.00;162873.88;5028115;28;20049;-67
2022/01/28 01:59:21;;;;;;;1999.90;999.90;;;;;;;1.80;100.00;162877.97;5021213;28;20381;-67
2022/01/28 02:01:48;;;;;;;1999.90;999.90;;;;;;;1.80;100.00;162876.63;5020123;28;20095;-67
2022/01/28 02:04:15;;;;;;;1999.90;999.90;;;;;;;1.65;100.00;162838.28;5016464;28;20084;-67
2022/01/28 02:06:42;;;;;;;1999.90;999.90;;;;;;;1.55;100.00;162810.94;5024855;28;20049;-67
2022/01/28 02:09:08;;;;;;;1999.90;999.90;;;;;;;1.51;100.00;162800.00;5022393;28;20068;-67
2022/01/28 02:11:35;;;;;;;1999.90;999.90;;;;;;;1.50;100.00;162797.25;5019089;28;20069;-67
2022/01/28 02:14:02;;;;;;;1999.90;999.90;;;;;;;1.71;100.00;162854.75;5025503;28;20045;-66
2022/01/28 02:16:29;;;;;;;1999.90;999.90;;;;;;;1.86;100.00;162893.06;5026343;28;20057;-67
2022/01/28 02:18:56;;;;;;;1999.90;999.90;;;;;;;1.75;100.00;162865.66;5017985;28;20076;-67
2022/01/28 02:21:23;;;;;;;1999.90;999.90;;;;;;;1.96;100.00;162919.09;5020466;28;20092;-67
2022/01/28 02:23:55;;;;;;;1999.90;999.90;;;;;;;2.16;100.00;162972.47;5020680;28;20527;-67
2022/01/28 02:26:22;;;;;;;1999.90;999.90;;;;;;;2.03;100.00;162938.25;5024387;28;20054;-67
2022/01/28 02:28:53;;;;;;;1999.90;999.90;;;;;;;2.17;100.00;162975.22;5026508;28;20064;-67
2022/01/28 02:31:24;;;;;;;1999.90;999.90;;;;;;;2.19;100.00;162980.66;5025099;28;20038;-67
2022/01/28 02:33:53;;;;;;;1999.90;999.90;;;;;;;2.18;100.00;162977.97;5011853;28;20083;-67
2022/01/28 02:36:20;;;;;;;1999.90;999.90;;;;;;;1.98;100.00;162925.94;5022738;28;20119;-67
2022/01/28 02:38:47;;;;;;;1999.90;999.90;;;;;;;1.74;100.00;162862.97;5025440;28;20061;-67
2022/01/28 02:41:13;;;;;;;1999.90;999.90;;;;;;;1.84;100.00;162888.94;5028392;28;20049;-67
2022/01/28 02:43:57;;;;;;;1999.90;999.90;;;;;;;1.70;100.00;162852.00;5018890;28;20057;-67
2022/01/28 02:46:26;;;;;;;1999.90;999.90;;;;;;;1.59;100.00;162821.88;5024227;28;20049;-67
2022/01/28 02:49:08;;;;;;;1999.90;999.90;;;;;;;1.65;100.00;162838.28;5015320;28;20067;-67
2022/01/28 02:51:35;;;;;;;1999.90;999.90;;;;;;;1.99;100.00;162928.66;5022079;28;20104;-67
2022/01/28 02:54:13;;;;;;;1999.90;999.90;;;;;;;2.21;100.00;162986.19;5019102;28;20123;-67
2022/01/28 02:56:47;;;;;;;1999.90;999.90;;;;;;;2.36;100.00;163027.25;5019309;28;20108;-66
2022/01/28 02:59:14;;;;;;;1999.90;999.90;;;;;;;2.42;100.00;163043.66;5024005;28;20053;-67
2022/01/28 03:01:40;;;;;;;1999.90;999.90;;;;;;;2.71;100.00;163120.41;5015827;28;20056;-67
2022/01/28 03:04:11;;;;;;;1999.90;999.90;;;;;;;2.51;100.00;163065.59;5022903;28;20053;-67
2022/01/28 03:06:38;;;;;;;1999.90;999.90;;;;;;;2.54;100.00;163073.81;5021974;28;20347;-67
2022/01/28 03:09:18;;;;;;;1999.90;999.90;;;;;;;2.71;100.00;163120.41;5015840;28;20057;-67
2022/01/28 03:11:57;;;;;;;1999.90;999.90;;;;;;;2.89;100.00;163168.34;5012757;28;20444;-67
2022/01/28 03:17:27;;;;;;;1999.90;999.90;;;;;;;2.83;100.00;163151.91;5025468;28;20668;-67
2022/01/28 03:19:55;;;;;;;1999.90;999.90;;;;;;;2.68;100.00;163112.19;5022028;28;20054;-67
2022/01/28 03:22:24;;;;;;;1999.90;999.90;;;;;;;2.54;100.00;163073.81;5023195;28;20450;-67
2022/01/28 03:24:53;;;;;;;1999.90;999.90;;;;;;;2.50;100.00;163062.84;5016296;28;20065;-66
2022/01/28 03:28:05;;;;;;;1999.90;999.90;;;;;;;2.29;100.00;163008.06;5019668;28;20057;-67
2022/01/28 03:30:06;;;;;;;1999.90;999.90;;;;;;;2.43;100.00;163045.06;5013819;28;20497;-66
2022/01/28 03:32:33;;;;;;;1999.90;999.90;;;;;;;2.36;100.00;163027.25;5023962;28;20175;-67
2022/01/28 03:35:20;;;;;;;1999.90;999.90;;;;;;;2.54;100.00;163075.16;5026080;28;20132;-66
2022/01/28 03:37:47;;;;;;;1999.90;999.90;;;;;;;2.76;100.00;163134.09;5020436;28;20518;-66
2022/01/28 03:40:18;;;;;;;1999.90;999.90;;;;;;;2.46;100.00;163054.63;5015982;28;20053;-67
2022/01/28 03:42:44;;;;;;;1999.90;999.90;;;;;;;2.51;100.00;163066.97;5021468;28;20049;-67
2022/01/28 03:45:11;;;;;;;1999.90;999.90;;;;;;;2.53;100.00;163071.06;5019093;28;20289;-67
2022/01/28 03:47:37;;;;;;;1999.90;999.90;;;;;;;2.43;100.00;163046.41;5018051;28;20108;-67
2022/01/28 03:50:04;;;;;;;1999.90;999.90;;;;;;;2.27;100.00;163003.97;5024926;28;20119;-66
2022/01/28 03:52:31;;;;;;;1999.90;999.90;;;;;;;2.57;100.00;163083.38;5020468;28;20049;-67
2022/01/28 03:54:57;;;;;;;1999.90;999.90;;;;;;;2.94;100.00;163182.03;5012529;28;20054;-67
2022/01/28 03:57:24;;;;;;;1999.90;999.90;;;;;;;2.84;98.98;163153.28;5028804;28;20145;-67
2022/01/28 03:59:50;;;;;;;1999.90;999.90;;;;;;;2.77;97.70;163135.44;5015739;28;20057;-66
2022/01/28 04:02:24;;;;;;;1999.90;999.90;;;;;;;2.93;95.62;163179.31;5020049;28;20045;-66
2022/01/28 04:12:55;;;;;;;1999.90;999.90;;;;;;;3.12;89.68;163229.97;5024737;28;20053;-66
2022/01/28 04:15:47;;;;;;;1999.90;999.90;;;;;;;3.29;89.49;163273.81;5023722;28;20362;-66
2022/01/28 04:18:14;;;;;;;1999.90;999.90;;;;;;;3.42;87.97;163309.47;5020252;28;20052;-65
2022/01/28 04:20:41;;;;;;;1999.90;999.90;;;;;;;3.79;86.50;163406.81;5024183;28;20060;-66
2022/01/28 04:23:07;;;;;;;1999.90;999.90;;;;;;;3.75;86.27;163395.81;5021256;28;20061;-66
2022/01/28 04:25:34;;;;;;;1999.90;999.90;;;;;;;3.43;86.57;163312.22;5014289;28;20041;-66
2022/01/28 04:28:00;;;;;;;1999.90;999.90;;;;;;;3.76;85.59;163399.94;5015806;28;20041;-66
2022/01/28 04:30:27;;;;;;;1999.90;999.90;;;;;;;4.05;84.92;163476.75;5024345;28;20096;-66
2022/01/28 04:32:53;;;;;;;1999.90;999.90;;;;;;;3.46;85.69;163319.09;5012757;28;20046;-66
2022/01/28 04:35:20;;;;;;;1999.90;999.90;;;;;;;3.31;86.26;163280.69;5014879;28;20059;-66
2022/01/28 04:40:38;;;;;;;1999.90;999.90;;;;;;;3.43;87.65;163312.22;5027250;28;20500;-66
2022/01/28 04:43:13;;;;;;;1999.90;999.90;;;;;;;3.47;87.65;163323.19;5021740;28;20053;-66
2022/01/28 04:45:51;;;;;;;1999.90;999.90;;;;;;;3.45;88.03;163316.31;5028672;28;20053;-66
2022/01/28 04:51:13;;;;;;;1999.90;999.90;;;;;;;2.80;96.32;163145.06;5022254;28;20057;-66
2022/01/28 04:53:50;;;;;;;1999.90;999.90;;;;;;;2.56;99.97;163079.28;5016966;28;20064;-66
2022/01/28 04:59:20;;;;;;;1999.90;999.90;;;;;;;2.91;99.63;163173.81;5026826;28;20053;-66
2022/01/28 05:07:24;;;;;;;1999.90;999.90;;;;;;;2.46;100.00;163053.28;5019250;28;20434;-66
2022/01/28 05:23:27;;;;;;;1999.90;999.90;;;;;;;2.41;100.00;163040.97;5024023;28;20335;-66
2022/01/28 05:28:36;;;;;;;1999.90;999.90;;;;;;;2.60;100.00;163090.25;5019368;28;20064;-66
2022/01/28 05:31:02;;;;;;;1999.90;999.90;;;;;;;2.37;100.00;163030.00;5026372;28;20111;-67
2022/01/28 05:33:29;;;;;;;1999.90;999.90;;;;;;;2.43;100.00;163045.06;5027664;28;20145;-67
2022/01/28 05:35:55;;;;;;;1999.90;999.90;;;;;;;2.74;100.00;163128.63;5022788;28;20057;-67
2022/01/28 05:38:22;;;;;;;1999.90;999.90;;;;;;;2.65;100.00;163103.97;5027561;28;20445;-67
2022/01/28 05:40:48;;;;;;;1999.90;999.90;;;;;;;2.56;100.00;163079.28;5023040;28;20060;-66
2022/01/28 05:43:15;;;;;;;1999.90;999.90;;;;;;;2.49;100.00;163060.09;5023809;28;20382;-67
2022/01/28 05:45:42;;;;;;;1999.90;999.90;;;;;;;2.42;100.00;163042.31;5023228;28;20045;-67
2022/01/28 05:48:08;;;;;;;1999.90;999.90;;;;;;;2.58;100.00;163084.78;5020597;28;20534;-67
2022/01/28 05:50:35;;;;;;;1999.90;999.90;;;;;;;2.46;100.00;163053.28;5020645;28;20057;-66
2022/01/28 05:53:01;;;;;;;1999.90;999.90;;;;;;;2.48;100.00;163058.75;5025035;28;20370;-67
2022/01/28 05:55:28;;;;;;;1999.90;999.90;;;;;;;2.66;100.00;163106.69;5018513;28;20049;-67
2022/01/28 05:57:54;;;;;;;1999.90;999.90;;;;;;;2.67;100.00;163108.09;5022089;28;20442;-66
2022/01/28 06:00:21;;;;;;;1999.90;999.90;;;;;;;2.80;100.00;163143.69;5032670;28;20425;-66
2022/01/28 06:02:47;;;;;;;1999.90;999.90;;;;;;;2.71;100.00;163120.41;5024167;28;20042;-67
2022/01/28 06:05:15;;;;;;;1999.90;999.90;;;;;;;2.44;100.00;163049.19;5024926;28;20045;-66
2022/01/28 06:07:42;;;;;;;1999.90;999.90;;;;;;;2.74;100.00;163128.63;5026682;28;20057;-67
2022/01/28 06:10:10;;;;;;;1999.90;999.90;;;;;;;2.59;100.00;163087.50;5023593;28;20370;-68
2022/01/28 06:12:44;;;;;;;1999.90;999.90;;;;;;;2.52;100.00;163068.38;5028338;28;20085;-67
2022/01/28 06:15:11;;;;;;;1999.90;999.90;;;;;;;2.67;100.00;163108.09;5030724;28;20599;-67
2022/01/28 06:17:38;;;;;;;1999.90;999.90;;;;;;;2.68;100.00;163110.78;5020831;28;20041;-67
2022/01/28 06:20:08;;;;;;;1999.90;999.90;;;;;;;2.57;100.00;163082.03;5016215;28;20304;-67
2022/01/28 06:22:43;;;;;;;1999.90;999.90;;;;;;;2.63;100.00;163098.47;5020953;28;20446;-68
2022/01/28 06:25:11;;;;;;;1999.90;999.90;;;;;;;2.72;100.00;163123.09;5022308;28;20057;-67
2022/01/28 06:27:37;;;;;;;1999.90;999.90;;;;;;;2.69;100.00;163114.91;5023761;28;20051;-67
2022/01/28 06:30:05;;;;;;;1999.90;999.90;;;;;;;2.71;100.00;163119.00;5029727;28;20689;-67
2022/01/28 06:32:33;;;;;;;1999.90;999.90;;;;;;;2.86;100.00;163160.13;5022738;28;20045;-67
2022/01/28 06:35:00;;;;;;;1999.90;999.90;;;;;;;2.71;100.00;163120.41;5027215;28;20049;-67
2022/01/28 06:37:27;;;;;;;1999.90;999.90;;;;;;;2.97;99.26;163188.88;5017406;28;20107;-67
2022/01/28 06:39:54;;;;;;;1999.90;999.90;;;;;;;2.67;99.17;163109.44;5017491;28;20390;-67
2022/01/28 06:42:20;;;;;;;1999.90;999.90;;;;;;;2.63;99.42;163098.47;5025509;28;20065;-67
2022/01/28 06:44:47;;;;;;;1999.90;999.90;;;;;;;2.64;98.29;163101.22;5015797;28;20057;-67
2022/01/28 06:47:13;;;;;;;1999.90;999.90;;;;;;;2.80;97.95;163145.06;5020231;28;20410;-68
2022/01/28 06:49:40;;;;;;;1999.90;999.90;;;;;;;3.01;96.57;163199.88;5025410;28;20179;-67
2022/01/28 06:52:07;;;;;;;1999.90;999.90;;;;;;;3.02;96.18;163201.22;5022592;28;20050;-67
2022/01/28 06:54:38;;;;;;;1999.90;999.90;;;;;;;2.91;95.78;163173.81;5025053;28;20058;-67
2022/01/28 06:57:05;;;;;;;1999.90;999.90;;;;;;;3.25;94.24;163262.91;5019391;28;20073;-68
2022/01/28 06:59:31;;;;;;;1999.90;999.90;;;;;;;3.03;93.93;163203.97;5018071;28;20048;-68
2022/01/28 07:01:58;;;;;;;1999.90;999.90;;;;;;;3.10;93.15;163223.16;5015889;28;20045;-67
2022/01/28 07:04:25;;;;;;;1999.90;999.90;;;;;;;3.17;92.76;163242.31;5017440;28;20132;-68
2022/01/28 07:06:51;;;;;;;1999.90;999.90;;;;;;;3.03;92.74;163205.31;5016881;28;20146;-67
2022/01/28 07:09:18;;;;;;;1999.90;999.90;;;;;;;3.18;92.38;163245.06;5023009;28;20049;-68
2022/01/28 07:11:44;;;;;;;1999.90;999.90;;;;;;;3.40;91.04;163302.66;5026148;28;20054;-68
2022/01/28 07:14:14;;;;;;;1999.90;999.90;;;;;;;3.08;91.28;163219.06;5016019;28;20045;-68
2022/01/28 07:16:41;;;;;;;1999.90;999.90;;;;;;;3.07;90.67;163216.28;5022495;28;20371;-68
2022/01/28 07:19:09;;;;;;;1999.90;999.90;;;;;;;3.21;90.66;163251.91;5017222;28;20093;-67
2022/01/28 07:21:36;;;;;;;1999.90;999.90;;;;;;;3.18;89.95;163245.06;5020674;28;20077;-67
2022/01/28 07:24:03;;;;;;;1999.90;999.90;;;;;;;3.42;89.91;163309.47;5017523;28;20062;-67
2022/01/28 07:26:29;;;;;;;1999.90;999.90;;;;;;;3.44;88.12;163314.97;5017533;28;20061;-68
2022/01/28 07:28:56;;;;;;;1999.90;999.90;;;;;;;3.31;88.94;163280.69;5016044;28;20104;-67
2022/01/28 07:31:22;;;;;;;1999.90;999.90;;;;;;;3.22;89.19;163256.03;5013216;28;20077;-67
2022/01/28 07:33:49;;;;;;;1999.90;999.90;;;;;;;3.34;88.72;163287.56;5020733;28;20050;-67
2022/01/28 07:36:18;;;;;;;1999.90;999.90;;;;;;;3.30;88.99;163277.94;5027033;28;20045;-67
2022/01/28 07:38:45;;;;;;;1999.90;999.90;;;;;;;3.32;88.73;163283.44;5024282;28;20073;-67
2022/01/28 07:41:11;;;;;;;1999.90;999.90;;;;;;;3.15;88.52;163238.19;5018709;28;20054;-67
2022/01/28 07:43:39;;;;;;;1999.90;999.90;;;;;;;3.33;88.44;163284.78;5019842;28;20096;-67
2022/01/28 07:46:06;;;;;;;1999.90;999.90;;;;;;;3.41;88.37;163305.34;5028682;28;20296;-67
2022/01/28 07:48:33;;;;;;;1999.90;999.90;;;;;;;3.24;88.61;163260.16;5021654;28;20442;-67
2022/01/28 07:51:00;;;;;;;1999.90;999.90;;;;;;;3.59;87.90;163354.72;5022684;28;20046;-67
2022/01/28 07:53:26;;;;;;;1999.90;999.90;;;;;;;3.19;88.46;163247.81;5021865;28;20127;-67
2022/01/28 07:55:52;;;;;;;1999.90;999.90;;;;;;;3.56;87.65;163345.09;5016873;28;20116;-67
2022/01/28 07:58:19;;;;;;;1999.90;999.90;;;;;;;3.44;87.98;163313.56;5017364;28;20288;-65
2022/01/28 08:00:46;;;;;;;1999.90;999.90;;;;;;;3.14;88.42;163235.50;5024769;28;20099;-67
2022/01/28 08:03:12;;;;;;;1999.90;999.90;;;;;;;3.29;87.93;163275.22;5018793;28;20284;-67
2022/01/28 08:05:39;;;;;;;1999.90;999.90;;;;;;;3.49;87.48;163328.66;5017359;28;20041;-67
2022/01/28 08:08:08;;;;;;;1999.90;999.90;;;;;;;3.41;87.20;163305.34;5019604;28;20389;-66
2022/01/28 08:10:35;;;;;;;1999.90;999.90;;;;;;;3.28;87.99;163272.47;5022699;28;20342;-66
2022/01/28 08:13:03;;;;;;;1999.90;999.90;;;;;;;3.55;87.50;163343.75;5023675;28;20057;-65
2022/01/28 08:15:30;;;;;;;1999.90;999.90;;;;;;;3.30;87.46;163277.94;5019651;28;20108;-66
2022/01/28 08:17:56;;;;;;;1999.90;999.90;;;;;;;3.46;87.55;163319.09;5021437;28;20049;-66
2022/01/28 08:20:23;;;;;;;1999.90;999.90;;;;;;;3.55;86.27;163343.75;5022700;28;20114;-66
2022/01/28 08:22:52;;;;;;;1999.90;999.90;;;;;;;3.32;86.88;163282.03;5023032;28;20492;-66
2022/01/28 08:25:23;;;;;;;1999.90;999.90;;;;;;;3.33;87.10;163284.78;5022528;28;20111;-66
2022/01/28 08:27:50;;;;;;;1999.90;999.90;;;;;;;3.40;86.53;163302.66;5024120;28;20103;-66
2022/01/28 08:30:19;;;;;;;1999.90;999.90;;;;;;;3.25;87.01;163262.91;5027497;28;20053;-66
2022/01/28 08:32:47;;;;;;;1999.90;999.90;;;;;;;3.31;86.66;163279.34;5024885;28;20402;-67
2022/01/28 08:35:15;;;;;;;1999.90;999.90;;;;;;;3.38;86.28;163298.53;5021692;28;20180;-66
2022/01/28 08:37:42;;;;;;;1999.90;999.90;;;;;;;3.36;86.22;163293.00;5022670;28;20199;-66
2022/01/28 08:40:12;;;;;;;1999.90;999.90;;;;;;;3.44;86.29;163314.97;5025182;28;20470;-67
2022/01/28 08:42:38;;;;;;;1999.90;999.90;;;;;;;3.30;87.30;163276.56;5019381;28;20053;-67
2022/01/28 08:45:05;;;;;;;1999.90;999.90;;;;;;;3.50;86.97;163331.41;5015880;28;20057;-66
2022/01/28 08:47:32;;;;;;;1999.90;999.90;;;;;;;3.20;88.70;163249.16;5028903;28;20045;-66
2022/01/28 08:49:58;;;;;;;1999.90;999.90;;;;;;;3.32;89.58;163283.44;5027388;28;20108;-67
2022/01/28 08:52:25;;;;;;;1999.90;999.90;;;;;;;3.08;91.20;163219.06;5014975;28;20047;-67
2022/01/28 08:54:51;;;;;;;1999.90;999.90;;;;;;;3.18;91.29;163245.06;5024422;28;20062;-67
2022/01/28 08:57:18;;;;;;;1999.90;999.90;;;;;;;3.15;92.09;163238.19;5019577;28;20131;-67
2022/01/28 08:59:45;;;;;;;1999.90;999.90;;;;;;;3.03;93.15;163205.31;5021531;28;20045;-67
2022/01/28 09:02:11;;;;;;;1999.90;999.90;;;;;;;2.87;93.90;163161.47;5024244;28;20100;-66
2022/01/28 09:04:38;;;;;;;1999.90;999.90;;;;;;;2.98;94.32;163191.66;5022136;28;20103;-67
2022/01/28 09:07:05;;;;;;;1999.90;999.90;;;;;;;2.93;94.57;163177.91;5022255;28;20057;-67
2022/01/28 09:09:31;;;;;;;1999.90;999.90;;;;;;;2.88;94.84;163165.59;5017900;28;20072;-67
2022/01/28 09:14:25;;;;;;;1999.90;999.90;;;;;;;2.97;95.26;163188.88;5022742;28;20316;-66
2022/01/28 09:16:56;;;;;;;1999.90;999.90;;;;;;;2.88;95.46;163164.25;5021719;28;20108;-66
2022/01/28 09:19:22;;;;;;;1999.90;999.90;;;;;;;3.14;95.04;163235.50;5017956;28;20045;-66
2022/01/28 09:21:50;;;;;;;1999.90;999.90;;;;;;;2.81;95.69;163147.81;5012516;28;20061;-67
2022/01/28 09:24:16;;;;;;;1999.90;999.90;;;;;;;2.93;95.67;163179.31;5028259;28;20061;-67
2022/01/28 09:26:43;;;;;;;1999.90;999.90;;;;;;;2.86;95.36;163158.72;5024230;28;20049;-66
2022/01/28 09:29:10;;;;;;;1999.90;999.90;;;;;;;2.64;96.69;163101.22;5022807;28;20045;-66
2022/01/28 09:31:36;;;;;;;1999.90;999.90;;;;;;;2.76;96.69;163134.09;5030812;28;20053;-67
2022/01/28 09:34:03;;;;;;;1999.90;999.90;;;;;;;2.81;96.93;163147.81;5019242;28;20470;-66
2022/01/28 09:36:29;;;;;;;1999.90;999.90;;;;;;;2.94;97.77;163180.66;5022163;28;20049;-66
2022/01/28 09:38:56;;;;;;;1999.90;999.90;;;;;;;2.93;97.09;163177.91;5025418;28;20429;-67
2022/01/28 09:41:23;;;;;;;1999.90;999.90;;;;;;;2.80;98.72;163145.06;5022945;28;20053;-67
2022/01/28 09:43:50;;;;;;;1999.90;999.90;;;;;;;2.55;99.42;163076.56;5024613;28;20107;-67
2022/01/28 09:46:17;;;;;;;1999.90;999.90;;;;;;;2.68;100.00;163112.19;5026136;28;20054;-66
2022/01/28 09:48:46;;;;;;;1999.90;999.90;;;;;;;2.51;100.00;163065.59;5019840;28;20060;-66
2022/01/28 09:51:13;;;;;;;1999.90;999.90;;;;;;;2.66;100.00;163105.34;5024045;28;20049;-66
2022/01/28 09:53:39;;;;;;;1999.90;999.90;;;;;;;2.43;100.00;163046.41;5025030;28;20095;-66
2022/01/28 09:56:06;;;;;;;1999.90;999.90;;;;;;;2.36;100.00;163027.25;5023093;28;20442;-66
2022/01/28 09:58:32;;;;;;;1999.90;999.90;;;;;;;2.20;100.00;162983.41;5020651;28;20050;-66
2022/01/28 10:01:02;;;;;;;1999.90;999.90;;;;;;;2.21;100.00;162986.19;5028572;28;20107;-66
2022/01/28 10:03:29;;;;;;;1999.90;999.90;;;;;;;2.06;100.00;162947.81;5016460;28;20140;-66
2022/01/28 10:05:57;;;;;;;1999.90;999.90;;;;;;;2.24;100.00;162995.75;5022591;28;20132;-67
2022/01/28 10:08:26;;;;;;;1999.90;999.90;;;;;;;2.28;100.00;163005.34;5023359;28;20045;-67
2022/01/28 10:11:03;;;;;;;1999.90;999.90;;;;;;;2.39;100.00;163035.47;5017293;28;20116;-67
2022/01/28 10:13:53;;;;;;;1999.90;999.90;;;;;;;2.26;100.00;162999.84;5024544;28;20248;-67
2022/01/28 10:16:23;;;;;;;1999.90;999.90;;;;;;;2.16;100.00;162972.47;5024458;28;20046;-66
2022/01/28 10:18:58;;;;;;;1999.90;999.90;;;;;;;2.06;100.00;162946.47;5023488;28;20460;-66
2022/01/28 10:21:39;;;;;;;1999.90;999.90;;;;;;;2.52;100.00;163069.72;5022468;28;20107;-67
2022/01/28 10:24:18;;;;;;;1999.90;999.90;;;;;;;2.19;100.00;162982.06;5020542;28;20057;-67
2022/01/28 10:27:09;;;;;;;1999.90;999.90;;;;;;;2.11;100.00;162961.53;5015399;28;20374;-66
2022/01/28 10:29:41;;;;;;;1999.90;999.90;;;;;;;2.22;100.00;162988.88;5014912;28;20328;-66
2022/01/28 10:32:12;;;;;;;1999.90;999.90;;;;;;;2.49;100.00;163060.09;5020515;28;20048;-66
2022/01/28 10:34:42;;;;;;;1999.90;999.90;;;;;;;2.75;100.00;163129.97;5027019;28;20045;-66
2022/01/28 10:37:24;;;;;;;1999.90;999.90;;;;;;;2.40;100.00;163038.22;5014187;28;20076;-66
2022/01/28 10:39:51;;;;;;;1999.90;999.90;;;;;;;2.53;100.00;163071.06;5017441;28;20161;-66
2022/01/28 10:42:49;;;;;;;1999.90;999.90;;;;;;;2.96;100.00;163186.13;5018995;28;20170;-66
2022/01/28 10:45:19;;;;;;;1999.90;999.90;;;;;;;2.75;100.00;163131.31;5018622;28;20407;-66
2022/01/28 10:47:54;;;;;;;1999.90;999.90;;;;;;;2.55;100.00;163076.56;5029255;28;20045;-65
2022/01/28 10:50:28;;;;;;;1999.90;999.90;;;;;;;2.55;100.00;163076.56;5019296;28;20390;-66
2022/01/28 10:53:13;;;;;;;1999.90;999.90;;;;;;;2.63;100.00;163098.47;5022795;28;20107;-66
2022/01/28 10:55:53;;;;;;;1999.90;999.90;;;;;;;2.81;100.00;163147.81;5016054;28;20515;-66
2022/01/28 10:58:23;;;;;;;1999.90;999.90;;;;;;;2.58;100.00;163084.78;5024261;28;20115;-65
2022/01/28 11:00:53;;;;;;;1999.90;999.90;;;;;;;2.54;100.00;163073.81;5019916;28;20041;-66
2022/01/28 11:03:27;;;;;;;1999.90;999.90;;;;;;;2.33;100.00;163017.69;5017356;28;20156;-66
2022/01/28 11:05:58;;;;;;;1999.90;999.90;;;;;;;2.49;100.00;163061.50;5014766;28;20242;-67
2022/01/28 11:08:29;;;;;;;1999.90;999.90;;;;;;;2.53;100.00;163071.06;5020918;28;20145;-67
2022/01/28 11:10:56;;;;;;;1999.90;999.90;;;;;;;2.65;100.00;163103.97;5024584;28;20046;-66
2022/01/28 11:13:23;;;;;;;1999.90;999.90;;;;;;;2.59;100.00;163087.50;5015440;28;20409;-66
2022/01/28 11:15:49;;;;;;;1999.90;999.90;;;;;;;2.42;100.00;163043.66;5022049;28;20061;-65
2022/01/28 11:18:16;;;;;;;1999.90;999.90;;;;;;;2.53;100.00;163071.06;5026252;28;20459;-66
2022/01/28 11:20:47;;;;;;;1999.90;999.90;;;;;;;2.47;100.00;163056.00;5028093;28;20053;-66
2022/01/28 11:23:17;;;;;;;1999.90;999.90;;;;;;;2.73;100.00;163125.88;5021644;28;20072;-67
2022/01/28 11:25:59;;;;;;;1999.90;999.90;;;;;;;2.52;100.00;163068.38;5016346;28;20049;-67
2022/01/28 11:28:47;;;;;;;1999.90;999.90;;;;;;;2.86;100.00;163160.13;5026147;28;20053;-66
2022/01/28 11:31:14;;;;;;;1999.90;999.90;;;;;;;2.90;100.00;163171.06;5014808;28;20054;-66
2022/01/28 11:33:47;;;;;;;1999.90;999.90;;;;;;;2.92;100.00;163176.56;5022642;28;20057;-66
2022/01/28 11:36:31;;;;;;;1999.90;999.90;;;;;;;2.67;100.00;163108.09;5024005;28;20050;-67
2022/01/28 11:39:02;;;;;;;1999.90;999.90;;;;;;;2.94;100.00;163180.66;5016127;28;20265;-67
2022/01/28 11:41:28;;;;;;;1999.90;999.90;;;;;;;3.21;100.00;163251.91;5022891;28;20107;-67
2022/01/28 11:43:56;;;;;;;1999.90;999.90;;;;;;;2.80;100.00;163143.69;5019145;28;20053;-67
2022/01/28 11:46:27;;;;;;;1999.90;999.90;;;;;;;2.95;100.00;163183.44;5027881;28;20093;-67
2022/01/28 11:49:02;;;;;;;1999.90;999.90;;;;;;;2.75;100.00;163131.31;5021715;28;20216;-67
2022/01/28 11:51:36;;;;;;;1999.90;999.90;;;;;;;3.06;100.00;163213.53;5029726;28;20100;-67
2022/01/28 11:54:08;;;;;;;1999.90;999.90;;;;;;;2.90;100.00;163169.69;5017373;28;20092;-68
2022/01/28 11:56:40;;;;;;;1999.90;999.90;;;;;;;2.69;100.00;163113.53;5021380;28;20058;-67
2022/01/28 11:59:08;;;;;;;1999.90;999.90;;;;;;;2.71;100.00;163120.41;5019726;28;20115;-68
2022/01/28 12:01:38;;;;;;;1999.90;999.90;;;;;;;2.74;100.00;163127.22;5021139;28;20099;-67
2022/01/28 12:04:26;;;;;;;1999.90;999.90;;;;;;;2.86;100.00;163158.72;5014181;28;20395;-67
2022/01/28 12:07:01;;;;;;;1999.90;999.90;;;;;;;2.74;100.00;163128.63;5014507;28;20054;-66
2022/01/28 12:09:33;;;;;;;1999.90;999.90;;;;;;;2.78;100.00;163138.19;5018270;28;20053;-66
2022/01/28 12:12:01;;;;;;;1999.90;999.90;;;;;;;2.97;100.00;163188.88;5022821;28;20064;-66
2022/01/28 12:14:52;;;;;;;1999.90;999.90;;;;;;;2.99;100.00;163195.75;5024395;28;20049;-66
2022/01/28 12:17:31;;;;;;;1999.90;999.90;;;;;;;3.03;100.00;163205.31;5020994;28;20111;-67
2022/01/28 12:20:13;;;;;;;1999.90;999.90;;;;;;;2.97;100.00;163188.88;5023614;28;20052;-67
2022/01/28 12:22:58;;;;;;;;;;;;;;;2.93;100.00;163179.31;5015430;28;20058;-67
2022/01/28 12:25:35;;;;;;;1999.90;999.90;;;;;;;2.82;100.00;163149.16;5021378;28;19935;-66
2022/01/28 12:28:21;;;;;;;1999.90;999.90;;;;;;;2.67;100.00;163109.44;5019261;28;20069;-66